createdAt,value
2024-03-24T00:00:00.611Z,952.5400
2024-03-24T00:00:11.660Z,952.5800
2024-03-24T00:00:22.726Z,952.5600
2024-03-24T00:00:33.756Z,952.5600
2024-03-24T00:00:44.809Z,952.5600
2024-03-24T00:00:55.858Z,952.5600
2024-03-24T00:01:06.943Z,952.5400
2024-03-24T00:01:17.971Z,952.5400
2024-03-24T00:01:29.068Z,952.5400
2024-03-24T00:01:40.081Z,952.5400
2024-03-24T00:01:51.126Z,952.5600
2024-03-24T00:02:02.167Z,952.5600
2024-03-24T00:02:13.193Z,952.5600
2024-03-24T00:02:24.239Z,952.5400
2024-03-24T00:02:35.274Z,952.5400
2024-03-24T00:02:46.317Z,952.5400
2024-03-24T00:02:57.349Z,952.5800
2024-03-24T00:03:08.373Z,952.5600
2024-03-24T00:03:19.436Z,952.5600
2024-03-24T00:03:30.479Z,952.5400
2024-03-24T00:03:41.534Z,952.5400
2024-03-24T00:03:52.589Z,952.5600
2024-03-24T00:04:03.673Z,952.5400
2024-03-24T00:04:14.699Z,952.5600
2024-03-24T00:04:25.744Z,952.5600
2024-03-24T00:04:39.009Z,952.5600
2024-03-24T00:04:50.708Z,952.5600
2024-03-24T00:05:01.771Z,952.5800
2024-03-24T00:05:12.789Z,952.5400
2024-03-24T00:05:23.846Z,952.5400
2024-03-24T00:05:34.884Z,952.5400
2024-03-24T00:05:45.931Z,952.5200
2024-03-24T00:05:56.996Z,952.5000
2024-03-24T00:06:08.010Z,952.5000
2024-03-24T00:06:19.081Z,952.5400
2024-03-24T00:06:30.113Z,952.5400
2024-03-24T00:06:41.154Z,952.5400
2024-03-24T00:06:52.208Z,952.5600
2024-03-24T00:07:03.281Z,952.5600
2024-03-24T00:07:14.289Z,952.5600
2024-03-24T00:07:25.341Z,952.5600
2024-03-24T00:07:36.389Z,952.5400
2024-03-24T00:07:47.431Z,952.5200
2024-03-24T00:07:58.474Z,952.5400
2024-03-24T00:08:09.515Z,952.5200
2024-03-24T00:08:20.554Z,952.5400
2024-03-24T00:08:31.603Z,952.5200
2024-03-24T00:08:42.681Z,952.5200
2024-03-24T00:08:53.732Z,952.5200
2024-03-24T00:09:04.785Z,952.5400
2024-03-24T00:09:15.831Z,952.5400
2024-03-24T00:09:26.892Z,952.5000
2024-03-24T00:09:37.950Z,952.5200
2024-03-24T00:09:48.995Z,952.5200
2024-03-24T00:10:00.050Z,952.5200
2024-03-24T00:10:11.095Z,952.5000
2024-03-24T00:10:22.130Z,952.5200
2024-03-24T00:10:33.178Z,952.5200
2024-03-24T00:10:44.250Z,952.5200
2024-03-24T00:10:55.284Z,952.5200
2024-03-24T00:11:06.341Z,952.5200
2024-03-24T00:11:17.364Z,952.5000
2024-03-24T00:11:28.380Z,952.5000
2024-03-24T00:11:39.434Z,952.5000
2024-03-24T00:11:50.444Z,952.5000
2024-03-24T00:12:01.509Z,952.5000
2024-03-24T00:12:12.560Z,952.5000
2024-03-24T00:12:23.580Z,952.5200
2024-03-24T00:12:34.650Z,952.5200
2024-03-24T00:12:45.719Z,952.4800
2024-03-24T00:12:56.774Z,952.5000
2024-03-24T00:13:07.847Z,952.5000
2024-03-24T00:13:18.905Z,952.5000
2024-03-24T00:13:29.934Z,952.5000
2024-03-24T00:13:40.990Z,952.5000
2024-03-24T00:13:52.083Z,952.5000
2024-03-24T00:14:03.141Z,952.4800
2024-03-24T00:14:14.176Z,952.4800
2024-03-24T00:14:25.231Z,952.4600
2024-03-24T00:14:36.273Z,952.4400
2024-03-24T00:14:47.319Z,952.4400
2024-03-24T00:14:58.369Z,952.4400
2024-03-24T00:15:09.415Z,952.4400
2024-03-24T00:15:20.464Z,952.4200
2024-03-24T00:15:31.495Z,952.4200
2024-03-24T00:15:42.565Z,952.4200
2024-03-24T00:15:53.591Z,952.4200
2024-03-24T00:16:04.669Z,952.4200
2024-03-24T00:16:15.694Z,952.4200
2024-03-24T00:16:26.749Z,952.4100
2024-03-24T00:16:37.770Z,952.4100
2024-03-24T00:16:48.814Z,952.3900
2024-03-24T00:16:59.841Z,952.3900
2024-03-24T00:17:10.884Z,952.3900
2024-03-24T00:17:21.976Z,952.4100
2024-03-24T00:17:33.013Z,952.4100
2024-03-24T00:17:44.075Z,952.3900
2024-03-24T00:17:55.127Z,952.3900
2024-03-24T00:18:06.169Z,952.3700
2024-03-24T00:18:17.186Z,952.3700
2024-03-24T00:18:28.256Z,952.3700
2024-03-24T00:18:39.321Z,952.3500
2024-03-24T00:18:50.358Z,952.3500
2024-03-24T00:19:01.422Z,952.3300
2024-03-24T00:19:12.486Z,952.3300
2024-03-24T00:19:23.523Z,952.3300
2024-03-24T00:19:34.597Z,952.3300
2024-03-24T00:19:45.649Z,952.3300
2024-03-24T00:19:56.709Z,952.3700
2024-03-24T00:20:07.733Z,952.3500
2024-03-24T00:20:18.801Z,952.3500
2024-03-24T00:20:29.836Z,952.3500
2024-03-24T00:20:40.871Z,952.3300
2024-03-24T00:20:51.928Z,952.3500
2024-03-24T00:21:02.948Z,952.3700
2024-03-24T00:21:14.001Z,952.3300
2024-03-24T00:21:25.052Z,952.3300
2024-03-24T00:21:36.112Z,952.3300
2024-03-24T00:21:47.138Z,952.3500
2024-03-24T00:21:58.186Z,952.3500
2024-03-24T00:22:09.256Z,952.3500
2024-03-24T00:22:20.284Z,952.3500
2024-03-24T00:22:31.527Z,952.3500
2024-03-24T00:22:42.572Z,952.3500
2024-03-24T00:22:53.639Z,952.3500
2024-03-24T00:23:04.694Z,952.3300
2024-03-24T00:23:15.753Z,952.3300
2024-03-24T00:23:26.823Z,952.3300
2024-03-24T00:23:37.885Z,952.3300
2024-03-24T00:23:48.933Z,952.3300
2024-03-24T00:23:59.948Z,952.3300
2024-03-24T00:24:11.025Z,952.3300
2024-03-24T00:24:22.049Z,952.3300
2024-03-24T00:24:33.093Z,952.3300
2024-03-24T00:24:44.131Z,952.3500
2024-03-24T00:24:55.166Z,952.3300
2024-03-24T00:25:06.226Z,952.3500
2024-03-24T00:25:17.275Z,952.3300
2024-03-24T00:25:28.315Z,952.3300
2024-03-24T00:25:39.371Z,952.3500
2024-03-24T00:25:50.427Z,952.3300
2024-03-24T00:26:01.478Z,952.3300
2024-03-24T00:26:12.505Z,952.3500
2024-03-24T00:26:23.524Z,952.3300
2024-03-24T00:26:34.573Z,952.3300
2024-03-24T00:26:45.613Z,952.3300
2024-03-24T00:26:56.679Z,952.3500
2024-03-24T00:27:07.740Z,952.3300
2024-03-24T00:27:18.816Z,952.3300
2024-03-24T00:27:29.835Z,952.3300
2024-03-24T00:27:40.892Z,952.3300
2024-03-24T00:27:51.951Z,952.3300
2024-03-24T00:28:03.018Z,952.3300
2024-03-24T00:28:14.067Z,952.3500
2024-03-24T00:28:25.096Z,952.3500
2024-03-24T00:28:36.124Z,952.3500
2024-03-24T00:28:47.173Z,952.3100
2024-03-24T00:28:58.225Z,952.3100
2024-03-24T00:29:09.303Z,952.2900
2024-03-24T00:29:20.338Z,952.3100
2024-03-24T00:29:31.353Z,952.2900
2024-03-24T00:29:42.418Z,952.3100
2024-03-24T00:29:53.444Z,952.3300
2024-03-24T00:30:04.474Z,952.3100
2024-03-24T00:30:15.524Z,952.3100
2024-03-24T00:30:26.559Z,952.3100
2024-03-24T00:30:37.614Z,952.3100
2024-03-24T00:30:48.653Z,952.3100
2024-03-24T00:30:59.700Z,952.3100
2024-03-24T00:31:10.755Z,952.3100
2024-03-24T00:31:21.816Z,952.3100
2024-03-24T00:31:32.851Z,952.3100
2024-03-24T00:31:43.892Z,952.3100
2024-03-24T00:31:54.961Z,952.3100
2024-03-24T00:32:06.025Z,952.3100
2024-03-24T00:32:17.082Z,952.3100
2024-03-24T00:32:28.133Z,952.3100
2024-03-24T00:32:39.150Z,952.3100
2024-03-24T00:32:50.166Z,952.3100
2024-03-24T00:33:01.227Z,952.2900
2024-03-24T00:33:12.271Z,952.2900
2024-03-24T00:33:23.313Z,952.2900
2024-03-24T00:33:34.368Z,952.2900
2024-03-24T00:33:45.417Z,952.2900
2024-03-24T00:33:56.465Z,952.3100
2024-03-24T00:34:07.537Z,952.3100
2024-03-24T00:34:18.603Z,952.3100
2024-03-24T00:34:29.670Z,952.3100
2024-03-24T00:34:40.698Z,952.2900
2024-03-24T00:34:51.703Z,952.2900
2024-03-24T00:35:02.765Z,952.2900
2024-03-24T00:35:13.802Z,952.2700
2024-03-24T00:35:24.860Z,952.2700
2024-03-24T00:35:35.911Z,952.2900
2024-03-24T00:35:47.009Z,952.2900
2024-03-24T00:35:58.029Z,952.2900
2024-03-24T00:36:09.086Z,952.2900
2024-03-24T00:36:20.132Z,952.2900
2024-03-24T00:36:31.182Z,952.2700
2024-03-24T00:36:42.214Z,952.2700
2024-03-24T00:36:53.269Z,952.2700
2024-03-24T00:37:04.295Z,952.2700
2024-03-24T00:37:15.335Z,952.2900
2024-03-24T00:37:26.392Z,952.2700
2024-03-24T00:37:37.404Z,952.2700
2024-03-24T00:37:48.446Z,952.2700
2024-03-24T00:37:59.525Z,952.2500
2024-03-24T00:38:10.564Z,952.2100
2024-03-24T00:38:21.600Z,952.2300
2024-03-24T00:38:32.633Z,952.2100
2024-03-24T00:38:43.684Z,952.2100
2024-03-24T00:38:54.742Z,952.2100
2024-03-24T00:39:05.794Z,952.2300
2024-03-24T00:39:16.852Z,952.2300
2024-03-24T00:39:27.965Z,952.2300
2024-03-24T00:39:40.464Z,952.2100
2024-03-24T00:39:52.873Z,952.2100
2024-03-24T00:40:03.886Z,952.1900
2024-03-24T00:40:14.953Z,952.1900
2024-03-24T00:40:25.982Z,952.1900
2024-03-24T00:40:37.002Z,952.1900
2024-03-24T00:40:48.042Z,952.1700
2024-03-24T00:40:59.102Z,952.1700
2024-03-24T00:41:10.149Z,952.1500
2024-03-24T00:41:21.215Z,952.1700
2024-03-24T00:41:32.265Z,952.1700
2024-03-24T00:41:43.274Z,952.1700
2024-03-24T00:41:54.313Z,952.1700
2024-03-24T00:42:05.359Z,952.1500
2024-03-24T00:42:16.411Z,952.1500
2024-03-24T00:42:27.446Z,952.1500
2024-03-24T00:42:38.497Z,952.1700
2024-03-24T00:42:49.557Z,952.1500
2024-03-24T00:43:00.581Z,952.1100
2024-03-24T00:43:11.614Z,952.1100
2024-03-24T00:43:22.654Z,952.0900
2024-03-24T00:43:33.713Z,952.0900
2024-03-24T00:43:44.762Z,952.0900
2024-03-24T00:43:55.829Z,952.0900
2024-03-24T00:44:06.857Z,952.0900
2024-03-24T00:44:17.870Z,952.1100
2024-03-24T00:44:28.922Z,952.1100
2024-03-24T00:44:40.016Z,952.1100
2024-03-24T00:44:51.071Z,952.1300
2024-03-24T00:45:02.121Z,952.0900
2024-03-24T00:45:13.165Z,952.1100
2024-03-24T00:45:24.189Z,952.1100
2024-03-24T00:45:35.244Z,952.1100
2024-03-24T00:45:46.295Z,952.1300
2024-03-24T00:45:57.353Z,952.1100
2024-03-24T00:46:08.407Z,952.1300
2024-03-24T00:46:19.443Z,952.1300
2024-03-24T00:46:30.459Z,952.1300
2024-03-24T00:46:41.493Z,952.1100
2024-03-24T00:46:52.561Z,952.1100
2024-03-24T00:47:03.632Z,952.1100
2024-03-24T00:47:14.671Z,952.1100
2024-03-24T00:47:25.700Z,952.1100
2024-03-24T00:47:36.714Z,952.0900
2024-03-24T00:47:47.744Z,952.1100
2024-03-24T00:47:58.771Z,952.1100
2024-03-24T00:48:09.820Z,952.0900
2024-03-24T00:48:20.872Z,952.0900
2024-03-24T00:48:31.923Z,952.0900
2024-03-24T00:48:42.973Z,952.0900
2024-03-24T00:48:54.003Z,952.0900
2024-03-24T00:49:05.066Z,952.0900
2024-03-24T00:49:16.067Z,952.0900
2024-03-24T00:49:27.084Z,952.1100
2024-03-24T00:49:38.173Z,952.1100
2024-03-24T00:49:49.238Z,952.0900
2024-03-24T00:50:00.267Z,952.0700
2024-03-24T00:50:11.310Z,952.0700
2024-03-24T00:50:22.358Z,952.0700
2024-03-24T00:50:33.400Z,952.0500
2024-03-24T00:50:44.468Z,952.0500
2024-03-24T00:50:55.483Z,952.0700
2024-03-24T00:51:06.551Z,952.0700
2024-03-24T00:51:17.598Z,952.0700
2024-03-24T00:51:28.652Z,952.0700
2024-03-24T00:51:39.723Z,952.0700
2024-03-24T00:51:50.763Z,952.0700
2024-03-24T00:52:01.835Z,952.0500
2024-03-24T00:52:12.885Z,952.0500
2024-03-24T00:52:23.925Z,952.0500
2024-03-24T00:52:35.004Z,952.0500
2024-03-24T00:52:46.030Z,952.0700
2024-03-24T00:52:57.077Z,952.0300
2024-03-24T00:53:08.140Z,952.0500
2024-03-24T00:53:19.155Z,952.0300
2024-03-24T00:53:30.202Z,952.0500
2024-03-24T00:53:41.266Z,952.0500
2024-03-24T00:53:52.303Z,952.0300
2024-03-24T00:54:03.319Z,952.0100
2024-03-24T00:54:14.371Z,951.9900
2024-03-24T00:54:25.425Z,952.0100
2024-03-24T00:54:36.469Z,952.0100
2024-03-24T00:54:47.543Z,952.0100
2024-03-24T00:54:58.583Z,952.0100
2024-03-24T00:55:09.683Z,951.9900
2024-03-24T00:55:20.754Z,951.9900
2024-03-24T00:55:31.804Z,952.0100
2024-03-24T00:55:42.817Z,952.0300
2024-03-24T00:55:53.894Z,952.0300
2024-03-24T00:56:04.955Z,952.0300
2024-03-24T00:56:15.994Z,952.0100
2024-03-24T00:56:26.998Z,952.0100
2024-03-24T00:56:38.035Z,952.0100
2024-03-24T00:56:49.081Z,952.0100
2024-03-24T00:57:00.105Z,952.0100
2024-03-24T00:57:11.148Z,952.0300
2024-03-24T00:57:22.204Z,952.0100
2024-03-24T00:57:33.252Z,952.0300
2024-03-24T00:57:44.303Z,952.0100
2024-03-24T00:57:55.364Z,952.0100
2024-03-24T00:58:06.453Z,951.9900
2024-03-24T00:58:17.467Z,951.9900
2024-03-24T00:58:28.508Z,951.9900
2024-03-24T00:58:39.555Z,951.9900
2024-03-24T00:58:50.611Z,952.0100
2024-03-24T00:59:01.677Z,951.9900
2024-03-24T00:59:12.734Z,951.9900
2024-03-24T00:59:23.763Z,951.9900
2024-03-24T00:59:34.810Z,951.9900
2024-03-24T00:59:45.829Z,951.9900
2024-03-24T00:59:56.922Z,951.9700
2024-03-24T01:00:07.974Z,951.9700
2024-03-24T01:00:19.008Z,951.9700
2024-03-24T01:00:30.058Z,951.9500
2024-03-24T01:00:41.071Z,951.9500
2024-03-24T01:00:52.104Z,951.9500
2024-03-24T01:01:03.133Z,951.9500
2024-03-24T01:01:14.187Z,951.9500
2024-03-24T01:01:25.257Z,951.9400
2024-03-24T01:01:36.289Z,951.9400
2024-03-24T01:01:47.340Z,951.9400
2024-03-24T01:01:58.378Z,951.9400
2024-03-24T01:02:09.425Z,951.9400
2024-03-24T01:02:20.484Z,951.9400
2024-03-24T01:02:31.502Z,951.9400
2024-03-24T01:02:42.540Z,951.9400
2024-03-24T01:02:53.560Z,951.9000
2024-03-24T01:03:04.592Z,951.9000
2024-03-24T01:03:15.645Z,951.9000
2024-03-24T01:03:26.647Z,951.9400
2024-03-24T01:03:37.698Z,951.9400
2024-03-24T01:03:48.713Z,951.9200
2024-03-24T01:03:59.767Z,951.9200
2024-03-24T01:04:10.855Z,951.9000
2024-03-24T01:04:21.897Z,951.9000
2024-03-24T01:04:32.944Z,951.8800
2024-03-24T01:04:44.002Z,951.9000
2024-03-24T01:04:55.052Z,951.9000
2024-03-24T01:05:06.133Z,951.9000
2024-03-24T01:05:17.172Z,951.9000
2024-03-24T01:05:28.230Z,951.8800
2024-03-24T01:05:39.325Z,951.8600
2024-03-24T01:05:50.394Z,951.8600
2024-03-24T01:06:01.435Z,951.8600
2024-03-24T01:06:12.474Z,951.8600
2024-03-24T01:06:23.543Z,951.8800
2024-03-24T01:06:34.584Z,951.8800
2024-03-24T01:06:45.644Z,951.8600
2024-03-24T01:06:56.671Z,951.8600
2024-03-24T01:07:07.718Z,951.8600
2024-03-24T01:07:18.763Z,951.8600
2024-03-24T01:07:29.811Z,951.8600
2024-03-24T01:07:40.868Z,951.8600
2024-03-24T01:07:51.896Z,951.8600
2024-03-24T01:08:02.971Z,951.8600
2024-03-24T01:08:13.993Z,951.8600
2024-03-24T01:08:25.064Z,951.8400
2024-03-24T01:08:36.144Z,951.8400
2024-03-24T01:08:47.194Z,951.8400
2024-03-24T01:08:58.269Z,951.8600
2024-03-24T01:09:09.294Z,951.8400
2024-03-24T01:09:20.352Z,951.8400
2024-03-24T01:09:31.396Z,951.8400
2024-03-24T01:09:42.454Z,951.8400
2024-03-24T01:09:53.509Z,951.8400
2024-03-24T01:10:04.558Z,951.8200
2024-03-24T01:10:15.634Z,951.8400
2024-03-24T01:10:26.692Z,951.8200
2024-03-24T01:10:37.739Z,951.8200
2024-03-24T01:10:48.789Z,951.8400
2024-03-24T01:10:59.829Z,951.8200
2024-03-24T01:11:10.853Z,951.8200
2024-03-24T01:11:21.882Z,951.8200
2024-03-24T01:11:32.910Z,951.8200
2024-03-24T01:11:43.953Z,951.8200
2024-03-24T01:11:54.993Z,951.8400
2024-03-24T01:12:06.035Z,951.8400
2024-03-24T01:12:17.087Z,951.8400
2024-03-24T01:12:28.142Z,951.8400
2024-03-24T01:12:39.162Z,951.8600
2024-03-24T01:12:50.213Z,951.8400
2024-03-24T01:13:01.264Z,951.8600
2024-03-24T01:13:12.339Z,951.8800
2024-03-24T01:13:23.365Z,951.8400
2024-03-24T01:13:34.413Z,951.8600
2024-03-24T01:13:45.453Z,951.8400
2024-03-24T01:13:56.499Z,951.8400
2024-03-24T01:14:07.533Z,951.8200
2024-03-24T01:14:18.574Z,951.8200
2024-03-24T01:14:29.698Z,951.8000
2024-03-24T01:14:40.723Z,951.8200
2024-03-24T01:14:51.762Z,951.8200
2024-03-24T01:15:02.771Z,951.8200
2024-03-24T01:15:13.808Z,951.8400
2024-03-24T01:15:24.888Z,951.8200
2024-03-24T01:15:35.923Z,951.8400
2024-03-24T01:15:46.998Z,951.8400
2024-03-24T01:15:58.034Z,951.8600
2024-03-24T01:16:09.126Z,951.8600
2024-03-24T01:16:20.161Z,951.8400
2024-03-24T01:16:31.205Z,951.8400
2024-03-24T01:16:42.247Z,951.8600
2024-03-24T01:16:53.324Z,951.8400
2024-03-24T01:17:04.378Z,951.8400
2024-03-24T01:17:15.433Z,951.8400
2024-03-24T01:17:26.487Z,951.8400
2024-03-24T01:17:37.520Z,951.8400
2024-03-24T01:17:48.581Z,951.8400
2024-03-24T01:17:59.650Z,951.8400
2024-03-24T01:18:10.707Z,951.8400
2024-03-24T01:18:21.762Z,951.8600
2024-03-24T01:18:32.759Z,951.8400
2024-03-24T01:18:43.800Z,951.8400
2024-03-24T01:18:54.876Z,951.8600
2024-03-24T01:19:05.905Z,951.8600
2024-03-24T01:19:16.964Z,951.8400
2024-03-24T01:19:30.046Z,951.8400
2024-03-24T01:19:42.652Z,951.8200
2024-03-24T01:19:53.710Z,951.8200
2024-03-24T01:20:04.730Z,951.8200
2024-03-24T01:20:15.750Z,951.8000
2024-03-24T01:20:26.833Z,951.8200
2024-03-24T01:20:37.883Z,951.8200
2024-03-24T01:20:48.929Z,951.8000
2024-03-24T01:20:59.950Z,951.8000
2024-03-24T01:21:11.017Z,951.8000
2024-03-24T01:21:22.047Z,951.8000
2024-03-24T01:21:33.104Z,951.8000
2024-03-24T01:21:44.205Z,951.8000
2024-03-24T01:21:55.346Z,951.7800
2024-03-24T01:22:06.397Z,951.8000
2024-03-24T01:22:17.435Z,951.8000
2024-03-24T01:22:28.463Z,951.8000
2024-03-24T01:22:39.514Z,951.7800
2024-03-24T01:22:50.560Z,951.8000
2024-03-24T01:23:01.612Z,951.8000
2024-03-24T01:23:12.651Z,951.7800
2024-03-24T01:23:23.672Z,951.7800
2024-03-24T01:23:34.719Z,951.7600
2024-03-24T01:23:45.782Z,951.7600
2024-03-24T01:23:56.835Z,951.7600
2024-03-24T01:24:07.884Z,951.7600
2024-03-24T01:24:18.926Z,951.7600
2024-03-24T01:24:29.970Z,951.7800
2024-03-24T01:24:40.976Z,951.7800
2024-03-24T01:24:52.026Z,951.7600
2024-03-24T01:25:03.049Z,951.7400
2024-03-24T01:25:14.103Z,951.7400
2024-03-24T01:25:25.147Z,951.7600
2024-03-24T01:25:36.235Z,951.7600
2024-03-24T01:25:47.273Z,951.7400
2024-03-24T01:25:58.376Z,951.7400
2024-03-24T01:26:09.410Z,951.7400
2024-03-24T01:26:22.742Z,951.7400
2024-03-24T01:26:34.168Z,951.7400
2024-03-24T01:26:45.217Z,951.7400
2024-03-24T01:26:56.243Z,951.7400
2024-03-24T01:27:07.283Z,951.7400
2024-03-24T01:27:18.309Z,951.7400
2024-03-24T01:27:29.329Z,951.7400
2024-03-24T01:27:40.389Z,951.7400
2024-03-24T01:27:51.448Z,951.7400
2024-03-24T01:28:02.478Z,951.7400
2024-03-24T01:28:13.509Z,951.7400
2024-03-24T01:28:24.558Z,951.7200
2024-03-24T01:28:35.608Z,951.7000
2024-03-24T01:28:46.624Z,951.7000
2024-03-24T01:28:57.673Z,951.7000
2024-03-24T01:29:08.735Z,951.6800
2024-03-24T01:29:19.784Z,951.6800
2024-03-24T01:29:30.835Z,951.6800
2024-03-24T01:29:41.885Z,951.6800
2024-03-24T01:29:52.954Z,951.6800
2024-03-24T01:30:03.985Z,951.6800
2024-03-24T01:30:15.038Z,951.6800
2024-03-24T01:30:26.056Z,951.6800
2024-03-24T01:30:37.083Z,951.6800
2024-03-24T01:30:48.141Z,951.6800
2024-03-24T01:30:59.224Z,951.6800
2024-03-24T01:31:10.301Z,951.6800
2024-03-24T01:31:21.321Z,951.6800
2024-03-24T01:31:32.386Z,951.6800
2024-03-24T01:31:43.435Z,951.6800
2024-03-24T01:31:54.470Z,951.6800
2024-03-24T01:32:05.517Z,951.7000
2024-03-24T01:32:16.549Z,951.6800
2024-03-24T01:32:27.560Z,951.6800
2024-03-24T01:32:38.601Z,951.6800
2024-03-24T01:32:49.628Z,951.6800
2024-03-24T01:33:00.684Z,951.6800
2024-03-24T01:33:11.739Z,951.6800
2024-03-24T01:33:22.775Z,951.6800
2024-03-24T01:33:33.830Z,951.6800
2024-03-24T01:33:44.881Z,951.6800
2024-03-24T01:33:55.895Z,951.6800
2024-03-24T01:34:06.941Z,951.6600
2024-03-24T01:34:17.993Z,951.6600
2024-03-24T01:34:29.052Z,951.6600
2024-03-24T01:34:40.103Z,951.6800
2024-03-24T01:34:51.153Z,951.6600
2024-03-24T01:35:02.180Z,951.6400
2024-03-24T01:35:13.199Z,951.6400
2024-03-24T01:35:24.255Z,951.6400
2024-03-24T01:35:35.281Z,951.6400
2024-03-24T01:35:46.356Z,951.6600
2024-03-24T01:35:57.367Z,951.6200
2024-03-24T01:36:08.423Z,951.6200
2024-03-24T01:36:19.491Z,951.6000
2024-03-24T01:36:30.523Z,951.6000
2024-03-24T01:36:41.568Z,951.6000
2024-03-24T01:36:52.622Z,951.6200
2024-03-24T01:37:03.689Z,951.6400
2024-03-24T01:37:14.729Z,951.6200
2024-03-24T01:37:25.759Z,951.6200
2024-03-24T01:37:36.803Z,951.6000
2024-03-24T01:37:47.847Z,951.6000
2024-03-24T01:37:58.897Z,951.6200
2024-03-24T01:38:09.943Z,951.6200
2024-03-24T01:38:20.976Z,951.6000
2024-03-24T01:38:32.010Z,951.6000
2024-03-24T01:38:43.061Z,951.6000
2024-03-24T01:38:54.104Z,951.6200
2024-03-24T01:39:05.159Z,951.6000
2024-03-24T01:39:16.201Z,951.6000
2024-03-24T01:39:27.270Z,951.6000
2024-03-24T01:39:38.310Z,951.5800
2024-03-24T01:39:49.350Z,951.6200
2024-03-24T01:40:00.404Z,951.6000
2024-03-24T01:40:11.470Z,951.6000
2024-03-24T01:40:22.510Z,951.6000
2024-03-24T01:40:33.550Z,951.6000
2024-03-24T01:40:44.654Z,951.6000
2024-03-24T01:40:55.726Z,951.6200
2024-03-24T01:41:06.771Z,951.6000
2024-03-24T01:41:17.815Z,951.6000
2024-03-24T01:41:28.858Z,951.6000
2024-03-24T01:41:39.891Z,951.6200
2024-03-24T01:41:50.944Z,951.6200
2024-03-24T01:42:01.984Z,951.6000
2024-03-24T01:42:13.066Z,951.6000
2024-03-24T01:42:24.090Z,951.6000
2024-03-24T01:42:35.128Z,951.6000
2024-03-24T01:42:46.166Z,951.6000
2024-03-24T01:42:57.195Z,951.6000
2024-03-24T01:43:08.236Z,951.6200
2024-03-24T01:43:19.270Z,951.6000
2024-03-24T01:43:30.318Z,951.6000
2024-03-24T01:43:41.340Z,951.5800
2024-03-24T01:43:52.383Z,951.5600
2024-03-24T01:44:03.438Z,951.5600
2024-03-24T01:44:14.505Z,951.5400
2024-03-24T01:44:25.531Z,951.5400
2024-03-24T01:44:36.570Z,951.5400
2024-03-24T01:44:47.602Z,951.5600
2024-03-24T01:44:58.630Z,951.5400
2024-03-24T01:45:09.692Z,951.5400
2024-03-24T01:45:20.735Z,951.5400
2024-03-24T01:45:31.764Z,951.5400
2024-03-24T01:45:42.790Z,951.5200
2024-03-24T01:45:53.850Z,951.5200
2024-03-24T01:46:04.917Z,951.5400
2024-03-24T01:46:15.973Z,951.5200
2024-03-24T01:46:27.012Z,951.5000
2024-03-24T01:46:38.056Z,951.5000
2024-03-24T01:46:49.110Z,951.5000
2024-03-24T01:47:00.163Z,951.5000
2024-03-24T01:47:11.183Z,951.4800
2024-03-24T01:47:22.227Z,951.4800
2024-03-24T01:47:33.286Z,951.4800
2024-03-24T01:47:44.390Z,951.5000
2024-03-24T01:47:55.430Z,951.5000
2024-03-24T01:48:06.485Z,951.5200
2024-03-24T01:48:17.520Z,951.5000
2024-03-24T01:48:28.560Z,951.5000
2024-03-24T01:48:39.600Z,951.5000
2024-03-24T01:48:50.646Z,951.4100
2024-03-24T01:49:01.693Z,951.4100
2024-03-24T01:49:12.770Z,951.4100
2024-03-24T01:49:23.784Z,951.3900
2024-03-24T01:49:34.828Z,951.3700
2024-03-24T01:49:45.847Z,951.3700
2024-03-24T01:49:56.891Z,951.3900
2024-03-24T01:50:07.945Z,951.3900
2024-03-24T01:50:18.963Z,951.4100
2024-03-24T01:50:29.991Z,951.4100
2024-03-24T01:50:41.053Z,951.4100
2024-03-24T01:50:52.080Z,951.4100
2024-03-24T01:51:03.116Z,951.4100
2024-03-24T01:51:14.184Z,951.4100
2024-03-24T01:51:25.230Z,951.4100
2024-03-24T01:51:36.250Z,951.4100
2024-03-24T01:51:47.300Z,951.3900
2024-03-24T01:51:58.343Z,951.3700
2024-03-24T01:52:09.405Z,951.3700
2024-03-24T01:52:20.407Z,951.3700
2024-03-24T01:52:31.435Z,951.3700
2024-03-24T01:52:42.471Z,951.3700
2024-03-24T01:52:53.507Z,951.3900
2024-03-24T01:53:04.562Z,951.3900
2024-03-24T01:53:15.613Z,951.3700
2024-03-24T01:53:26.639Z,951.3700
2024-03-24T01:53:37.690Z,951.3900
2024-03-24T01:53:48.718Z,951.3900
2024-03-24T01:53:59.809Z,951.3900
2024-03-24T01:54:10.794Z,951.3900
2024-03-24T01:54:21.862Z,951.3900
2024-03-24T01:54:32.911Z,951.3900
2024-03-24T01:54:43.949Z,951.3900
2024-03-24T01:54:55.001Z,951.3900
2024-03-24T01:55:06.044Z,951.3900
2024-03-24T01:55:17.103Z,951.3700
2024-03-24T01:55:28.145Z,951.3700
2024-03-24T01:55:39.205Z,951.3700
2024-03-24T01:55:50.239Z,951.3900
2024-03-24T01:56:01.273Z,951.3700
2024-03-24T01:56:12.326Z,951.3700
2024-03-24T01:56:23.441Z,951.3700
2024-03-24T01:56:34.472Z,951.3700
2024-03-24T01:56:45.540Z,951.3700
2024-03-24T01:56:56.580Z,951.3700
2024-03-24T01:57:07.624Z,951.3700
2024-03-24T01:57:18.671Z,951.3700
2024-03-24T01:57:29.831Z,951.3700
2024-03-24T01:57:41.038Z,951.3900
2024-03-24T01:57:52.103Z,951.3900
2024-03-24T01:58:03.124Z,951.3900
2024-03-24T01:58:14.207Z,951.3700
2024-03-24T01:58:25.205Z,951.3900
2024-03-24T01:58:36.267Z,951.3900
2024-03-24T01:58:47.314Z,951.3900
2024-03-24T01:58:58.381Z,951.4100
2024-03-24T01:59:09.429Z,951.4100
2024-03-24T01:59:20.434Z,951.3900
2024-03-24T01:59:31.445Z,951.3700
2024-03-24T01:59:42.486Z,951.3700
2024-03-24T01:59:53.507Z,951.3700
2024-03-24T02:00:04.564Z,951.3300
2024-03-24T02:00:15.629Z,951.3500
2024-03-24T02:00:26.669Z,951.3500
2024-03-24T02:00:37.744Z,951.3500
2024-03-24T02:00:48.746Z,951.3500
2024-03-24T02:00:59.814Z,951.3700
2024-03-24T02:01:10.856Z,951.3500
2024-03-24T02:01:21.901Z,951.3500
2024-03-24T02:01:32.974Z,951.3700
2024-03-24T02:01:44.019Z,951.3500
2024-03-24T02:01:55.049Z,951.3500
2024-03-24T02:02:06.071Z,951.3500
2024-03-24T02:02:17.120Z,951.3500
2024-03-24T02:02:28.170Z,951.3500
2024-03-24T02:02:39.226Z,951.3300
2024-03-24T02:02:50.311Z,951.3500
2024-03-24T02:03:01.351Z,951.3300
2024-03-24T02:03:12.401Z,951.3300
2024-03-24T02:03:23.434Z,951.3300
2024-03-24T02:03:34.469Z,951.3300
2024-03-24T02:03:45.527Z,951.3300
2024-03-24T02:03:56.564Z,951.3300
2024-03-24T02:04:07.615Z,951.3100
2024-03-24T02:04:18.640Z,951.3300
2024-03-24T02:04:29.770Z,951.3300
2024-03-24T02:04:40.874Z,951.3100
2024-03-24T02:04:51.921Z,951.3500
2024-03-24T02:05:02.964Z,951.3500
2024-03-24T02:05:14.014Z,951.3500
2024-03-24T02:05:25.025Z,951.3500
2024-03-24T02:05:36.098Z,951.3500
2024-03-24T02:05:47.120Z,951.3300
2024-03-24T02:05:58.174Z,951.3500
2024-03-24T02:06:09.262Z,951.3300
2024-03-24T02:06:20.285Z,951.3500
2024-03-24T02:06:31.733Z,951.3300
2024-03-24T02:06:42.837Z,951.3100
2024-03-24T02:06:53.895Z,951.3100
2024-03-24T02:07:04.920Z,951.3100
2024-03-24T02:07:15.985Z,951.3100
2024-03-24T02:07:27.069Z,951.2900
2024-03-24T02:07:38.149Z,951.3100
2024-03-24T02:07:49.161Z,951.2900
2024-03-24T02:08:00.182Z,951.2900
2024-03-24T02:08:11.245Z,951.2700
2024-03-24T02:08:22.314Z,951.2700
2024-03-24T02:08:33.375Z,951.2700
2024-03-24T02:08:44.418Z,951.2900
2024-03-24T02:08:55.463Z,951.2900
2024-03-24T02:09:06.522Z,951.2700
2024-03-24T02:09:17.577Z,951.2700
2024-03-24T02:09:28.621Z,951.2700
2024-03-24T02:09:39.706Z,951.2700
2024-03-24T02:09:50.738Z,951.2700